sensor_id;sensor_type;location;lat;lon;timestamp;P1;durP1;ratioP1;P2;durP2;ratioP2
52614;SDS011;38508;53.158;6.614;2023-01-05T00:01:21;209.73;;;194.23;;
52614;SDS011;38508;53.158;6.614;2023-01-05T00:03:46;205.38;;;191.30;;
52614;SDS011;38508;53.158;6.614;2023-01-05T00:06:13;209.55;;;194.20;;
52614;SDS011;38508;53.158;6.614;2023-01-05T00:08:41;210.68;;;195.50;;
52614;SDS011;38508;53.158;6.614;2023-01-05T00:13:54;209.02;;;192.95;;
52614;SDS011;38508;53.158;6.614;2023-01-05T00:16:39;194.15;;;179.20;;
52614;SDS011;38508;53.158;6.614;2023-01-05T00:19:23;203.00;;;186.88;;
52614;SDS011;38508;53.158;6.614;2023-01-05T00:27:32;205.23;;;190.25;;
52614;SDS011;38508;53.158;6.614;2023-01-05T00:29:58;204.25;;;188.52;;
52614;SDS011;38508;53.158;6.614;2023-01-05T00:32:24;203.45;;;188.43;;
52614;SDS011;38508;53.158;6.614;2023-01-05T00:34:50;211.82;;;196.93;;
52614;SDS011;38508;53.158;6.614;2023-01-05T00:37:20;204.02;;;189.05;;
52614;SDS011;38508;53.158;6.614;2023-01-05T00:39:51;206.25;;;191.63;;
52614;SDS011;38508;53.158;6.614;2023-01-05T00:42:18;212.93;;;198.07;;
52614;SDS011;38508;53.158;6.614;2023-01-05T00:44:44;214.75;;;199.23;;
52614;SDS011;38508;53.158;6.614;2023-01-05T00:47:10;213.40;;;197.88;;
52614;SDS011;38508;53.158;6.614;2023-01-05T00:49:35;216.10;;;200.77;;
52614;SDS011;38508;53.158;6.614;2023-01-05T00:52:01;201.13;;;186.35;;
52614;SDS011;38508;53.158;6.614;2023-01-05T00:54:27;206.00;;;190.75;;
52614;SDS011;38508;53.158;6.614;2023-01-05T00:56:52;212.40;;;195.85;;
52614;SDS011;38508;53.158;6.614;2023-01-05T00:59:18;203.40;;;187.35;;
52614;SDS011;38508;53.158;6.614;2023-01-05T01:01:44;203.60;;;187.85;;
52614;SDS011;38508;53.158;6.614;2023-01-05T01:04:11;204.05;;;188.23;;
52614;SDS011;38508;53.158;6.614;2023-01-05T01:06:39;199.35;;;183.27;;
52614;SDS011;38508;53.158;6.614;2023-01-05T01:09:05;203.70;;;188.52;;
52614;SDS011;38508;53.158;6.614;2023-01-05T01:11:31;204.95;;;189.18;;
52614;SDS011;38508;53.158;6.614;2023-01-05T01:13:57;212.32;;;196.98;;
52614;SDS011;38508;53.158;6.614;2023-01-05T01:16:23;206.93;;;191.23;;
52614;SDS011;38508;53.158;6.614;2023-01-05T01:18:49;206.98;;;192.00;;
52614;SDS011;38508;53.158;6.614;2023-01-05T01:21:14;214.68;;;199.45;;
52614;SDS011;38508;53.158;6.614;2023-01-05T01:23:40;206.48;;;192.55;;
52614;SDS011;38508;53.158;6.614;2023-01-05T01:26:07;202.18;;;187.77;;
52614;SDS011;38508;53.158;6.614;2023-01-05T01:28:34;199.55;;;184.50;;
52614;SDS011;38508;53.158;6.614;2023-01-05T01:31:00;198.05;;;184.63;;
52614;SDS011;38508;53.158;6.614;2023-01-05T01:33:26;208.27;;;193.85;;
52614;SDS011;38508;53.158;6.614;2023-01-05T01:35:52;204.93;;;191.00;;
52614;SDS011;38508;53.158;6.614;2023-01-05T01:38:18;195.82;;;182.27;;
52614;SDS011;38508;53.158;6.614;2023-01-05T01:40:45;191.18;;;177.77;;
52614;SDS011;38508;53.158;6.614;2023-01-05T01:43:12;191.00;;;177.07;;
52614;SDS011;38508;53.158;6.614;2023-01-05T01:45:38;188.55;;;174.38;;
52614;SDS011;38508;53.158;6.614;2023-01-05T01:48:04;184.60;;;170.90;;
52614;SDS011;38508;53.158;6.614;2023-01-05T01:50:31;184.25;;;171.82;;
52614;SDS011;38508;53.158;6.614;2023-01-05T01:53:01;195.15;;;181.55;;
52614;SDS011;38508;53.158;6.614;2023-01-05T01:55:54;203.82;;;191.18;;
52614;SDS011;38508;53.158;6.614;2023-01-05T01:58:24;204.65;;;189.80;;
52614;SDS011;38508;53.158;6.614;2023-01-05T02:00:51;206.20;;;192.00;;
52614;SDS011;38508;53.158;6.614;2023-01-05T02:03:18;209.50;;;194.75;;
52614;SDS011;38508;53.158;6.614;2023-01-05T02:05:43;204.80;;;190.43;;
52614;SDS011;38508;53.158;6.614;2023-01-05T02:08:10;203.55;;;188.90;;
52614;SDS011;38508;53.158;6.614;2023-01-05T02:14:10;195.95;;;181.63;;
52614;SDS011;38508;53.158;6.614;2023-01-05T02:16:21;186.00;;;173.50;;
52614;SDS011;38508;53.158;6.614;2023-01-05T02:19:01;194.20;;;181.43;;
52614;SDS011;38508;53.158;6.614;2023-01-05T02:28:02;177.90;;;165.82;;
52614;SDS011;38508;53.158;6.614;2023-01-05T02:30:48;169.00;;;157.68;;
52614;SDS011;38508;53.158;6.614;2023-01-05T02:33:39;187.73;;;174.60;;
52614;SDS011;38508;53.158;6.614;2023-01-05T02:39:20;179.70;;;166.88;;
52614;SDS011;38508;53.158;6.614;2023-01-05T02:42:03;201.95;;;187.48;;
52614;SDS011;38508;53.158;6.614;2023-01-05T02:44:36;204.00;;;190.10;;
52614;SDS011;38508;53.158;6.614;2023-01-05T02:50:37;204.43;;;190.88;;
52614;SDS011;38508;53.158;6.614;2023-01-05T02:52:46;203.25;;;188.57;;
52614;SDS011;38508;53.158;6.614;2023-01-05T02:55:36;192.23;;;178.10;;
52614;SDS011;38508;53.158;6.614;2023-01-05T02:58:13;188.10;;;175.10;;
52614;SDS011;38508;53.158;6.614;2023-01-05T03:00:51;188.18;;;175.63;;
52614;SDS011;38508;53.158;6.614;2023-01-05T03:03:35;190.32;;;176.50;;
52614;SDS011;38508;53.158;6.614;2023-01-05T03:06:09;190.05;;;177.63;;
52614;SDS011;38508;53.158;6.614;2023-01-05T03:08:49;189.52;;;176.52;;
52614;SDS011;38508;53.158;6.614;2023-01-05T03:11:17;192.35;;;179.05;;
52614;SDS011;38508;53.158;6.614;2023-01-05T03:14:35;195.23;;;181.65;;
52614;SDS011;38508;53.158;6.614;2023-01-05T03:16:59;198.15;;;183.75;;
52614;SDS011;38508;53.158;6.614;2023-01-05T03:19:28;198.43;;;184.60;;
52614;SDS011;38508;53.158;6.614;2023-01-05T03:22:06;200.60;;;186.07;;
52614;SDS011;38508;53.158;6.614;2023-01-05T03:24:58;201.05;;;186.85;;
52614;SDS011;38508;53.158;6.614;2023-01-05T03:27:43;203.13;;;188.50;;
52614;SDS011;38508;53.158;6.614;2023-01-05T03:30:34;206.05;;;192.15;;
52614;SDS011;38508;53.158;6.614;2023-01-05T03:33:36;193.35;;;179.95;;
52614;SDS011;38508;53.158;6.614;2023-01-05T03:36:27;198.20;;;184.57;;
52614;SDS011;38508;53.158;6.614;2023-01-05T03:38:55;197.00;;;183.25;;
52614;SDS011;38508;53.158;6.614;2023-01-05T03:41:24;201.63;;;188.07;;
52614;SDS011;38508;53.158;6.614;2023-01-05T03:43:51;200.45;;;186.50;;
52614;SDS011;38508;53.158;6.614;2023-01-05T03:46:19;191.07;;;178.15;;
52614;SDS011;38508;53.158;6.614;2023-01-05T03:48:46;195.52;;;182.50;;
52614;SDS011;38508;53.158;6.614;2023-01-05T03:51:13;202.13;;;188.30;;
52614;SDS011;38508;53.158;6.614;2023-01-05T03:53:40;201.63;;;187.73;;
52614;SDS011;38508;53.158;6.614;2023-01-05T03:56:06;206.88;;;192.93;;
52614;SDS011;38508;53.158;6.614;2023-01-05T03:58:32;198.02;;;184.20;;
52614;SDS011;38508;53.158;6.614;2023-01-05T04:00:58;207.95;;;193.45;;
52614;SDS011;38508;53.158;6.614;2023-01-05T04:03:23;207.93;;;193.60;;
52614;SDS011;38508;53.158;6.614;2023-01-05T04:05:49;206.70;;;191.93;;
52614;SDS011;38508;53.158;6.614;2023-01-05T04:08:14;210.02;;;195.15;;
52614;SDS011;38508;53.158;6.614;2023-01-05T04:10:41;206.32;;;192.68;;
52614;SDS011;38508;53.158;6.614;2023-01-05T04:13:06;213.25;;;198.73;;
52614;SDS011;38508;53.158;6.614;2023-01-05T04:15:32;205.35;;;191.10;;
52614;SDS011;38508;53.158;6.614;2023-01-05T04:17:58;204.90;;;190.55;;
52614;SDS011;38508;53.158;6.614;2023-01-05T04:20:24;207.07;;;192.65;;
52614;SDS011;38508;53.158;6.614;2023-01-05T04:22:49;205.00;;;190.65;;
52614;SDS011;38508;53.158;6.614;2023-01-05T04:25:15;200.07;;;186.43;;
52614;SDS011;38508;53.158;6.614;2023-01-05T04:27:41;200.80;;;186.40;;
52614;SDS011;38508;53.158;6.614;2023-01-05T04:30:07;198.35;;;184.88;;
52614;SDS011;38508;53.158;6.614;2023-01-05T04:32:33;195.75;;;183.02;;
52614;SDS011;38508;53.158;6.614;2023-01-05T04:34:58;196.65;;;183.75;;
52614;SDS011;38508;53.158;6.614;2023-01-05T04:37:24;183.55;;;171.55;;
52614;SDS011;38508;53.158;6.614;2023-01-05T04:39:50;174.82;;;163.02;;
52614;SDS011;38508;53.158;6.614;2023-01-05T04:42:15;180.27;;;168.25;;
52614;SDS011;38508;53.158;6.614;2023-01-05T04:44:41;170.07;;;158.43;;
52614;SDS011;38508;53.158;6.614;2023-01-05T04:47:07;171.63;;;159.77;;
52614;SDS011;38508;53.158;6.614;2023-01-05T04:49:32;168.02;;;156.75;;
52614;SDS011;38508;53.158;6.614;2023-01-05T04:51:58;174.65;;;163.27;;
52614;SDS011;38508;53.158;6.614;2023-01-05T04:54:24;177.13;;;164.63;;
52614;SDS011;38508;53.158;6.614;2023-01-05T04:56:49;169.32;;;157.90;;
52614;SDS011;38508;53.158;6.614;2023-01-05T04:59:15;160.23;;;149.57;;
52614;SDS011;38508;53.158;6.614;2023-01-05T05:01:41;170.32;;;157.95;;
52614;SDS011;38508;53.158;6.614;2023-01-05T05:04:06;157.40;;;146.40;;
52614;SDS011;38508;53.158;6.614;2023-01-05T05:06:32;159.38;;;148.63;;
52614;SDS011;38508;53.158;6.614;2023-01-05T05:08:58;157.32;;;146.80;;
52614;SDS011;38508;53.158;6.614;2023-01-05T05:11:23;153.32;;;142.52;;
52614;SDS011;38508;53.158;6.614;2023-01-05T05:13:49;154.63;;;145.02;;
52614;SDS011;38508;53.158;6.614;2023-01-05T05:16:15;150.35;;;140.25;;
52614;SDS011;38508;53.158;6.614;2023-01-05T05:18:40;162.48;;;152.00;;
52614;SDS011;38508;53.158;6.614;2023-01-05T05:21:06;163.10;;;152.65;;
52614;SDS011;38508;53.158;6.614;2023-01-05T05:23:31;167.88;;;156.98;;
52614;SDS011;38508;53.158;6.614;2023-01-05T05:25:57;170.05;;;159.02;;
52614;SDS011;38508;53.158;6.614;2023-01-05T05:28:23;170.73;;;158.90;;
52614;SDS011;38508;53.158;6.614;2023-01-05T05:30:52;160.88;;;149.80;;
52614;SDS011;38508;53.158;6.614;2023-01-05T05:33:19;162.80;;;152.77;;
52614;SDS011;38508;53.158;6.614;2023-01-05T05:35:45;160.27;;;149.07;;
52614;SDS011;38508;53.158;6.614;2023-01-05T05:38:10;160.02;;;149.30;;
52614;SDS011;38508;53.158;6.614;2023-01-05T05:40:36;173.00;;;161.38;;
52614;SDS011;38508;53.158;6.614;2023-01-05T05:43:02;180.93;;;168.95;;
52614;SDS011;38508;53.158;6.614;2023-01-05T05:45:28;188.18;;;175.63;;
52614;SDS011;38508;53.158;6.614;2023-01-05T05:47:53;191.85;;;178.35;;
52614;SDS011;38508;53.158;6.614;2023-01-05T05:50:19;187.00;;;173.15;;
52614;SDS011;38508;53.158;6.614;2023-01-05T05:52:45;186.30;;;172.73;;
52614;SDS011;38508;53.158;6.614;2023-01-05T05:55:10;200.10;;;185.90;;
52614;SDS011;38508;53.158;6.614;2023-01-05T05:57:36;196.65;;;183.50;;
52614;SDS011;38508;53.158;6.614;2023-01-05T06:00:02;185.55;;;173.35;;
52614;SDS011;38508;53.158;6.614;2023-01-05T06:02:28;192.45;;;179.95;;
52614;SDS011;38508;53.158;6.614;2023-01-05T06:04:54;187.85;;;176.05;;
52614;SDS011;38508;53.158;6.614;2023-01-05T06:07:20;186.50;;;173.82;;
52614;SDS011;38508;53.158;6.614;2023-01-05T06:09:46;191.55;;;178.30;;
52614;SDS011;38508;53.158;6.614;2023-01-05T06:12:11;170.43;;;158.95;;
52614;SDS011;38508;53.158;6.614;2023-01-05T06:14:37;176.73;;;164.63;;
52614;SDS011;38508;53.158;6.614;2023-01-05T06:17:02;184.02;;;171.63;;
52614;SDS011;38508;53.158;6.614;2023-01-05T06:19:28;176.15;;;164.85;;
52614;SDS011;38508;53.158;6.614;2023-01-05T06:21:54;182.65;;;170.43;;
52614;SDS011;38508;53.158;6.614;2023-01-05T06:24:19;169.13;;;158.32;;
52614;SDS011;38508;53.158;6.614;2023-01-05T06:26:45;175.48;;;163.88;;
52614;SDS011;38508;53.158;6.614;2023-01-05T06:29:11;178.68;;;167.05;;
52614;SDS011;38508;53.158;6.614;2023-01-05T06:31:36;172.68;;;161.65;;
52614;SDS011;38508;53.158;6.614;2023-01-05T06:34:02;179.38;;;167.27;;
52614;SDS011;38508;53.158;6.614;2023-01-05T06:36:28;173.32;;;161.93;;
52614;SDS011;38508;53.158;6.614;2023-01-05T06:38:53;177.55;;;165.70;;
52614;SDS011;38508;53.158;6.614;2023-01-05T06:41:19;180.65;;;168.15;;
52614;SDS011;38508;53.158;6.614;2023-01-05T06:43:45;180.65;;;167.65;;
52614;SDS011;38508;53.158;6.614;2023-01-05T06:46:10;198.85;;;185.93;;
52614;SDS011;38508;53.158;6.614;2023-01-05T06:48:36;198.02;;;183.82;;
52614;SDS011;38508;53.158;6.614;2023-01-05T06:51:02;198.52;;;184.10;;
52614;SDS011;38508;53.158;6.614;2023-01-05T06:53:27;190.65;;;177.02;;
52614;SDS011;38508;53.158;6.614;2023-01-05T06:55:53;192.55;;;178.48;;
52614;SDS011;38508;53.158;6.614;2023-01-05T06:58:19;189.18;;;175.32;;
52614;SDS011;38508;53.158;6.614;2023-01-05T07:00:45;196.00;;;181.30;;
52614;SDS011;38508;53.158;6.614;2023-01-05T07:03:11;191.35;;;178.07;;
52614;SDS011;38508;53.158;6.614;2023-01-05T07:05:37;192.02;;;177.43;;
52614;SDS011;38508;53.158;6.614;2023-01-05T07:08:03;185.82;;;171.82;;
52614;SDS011;38508;53.158;6.614;2023-01-05T07:10:29;193.18;;;179.70;;
52614;SDS011;38508;53.158;6.614;2023-01-05T07:12:55;182.15;;;168.85;;
52614;SDS011;38508;53.158;6.614;2023-01-05T07:15:21;182.65;;;169.18;;
52614;SDS011;38508;53.158;6.614;2023-01-05T07:17:46;189.70;;;176.70;;
52614;SDS011;38508;53.158;6.614;2023-01-05T07:20:12;178.57;;;165.60;;
52614;SDS011;38508;53.158;6.614;2023-01-05T07:22:38;170.95;;;157.65;;
52614;SDS011;38508;53.158;6.614;2023-01-05T07:25:03;180.43;;;167.90;;
52614;SDS011;38508;53.158;6.614;2023-01-05T07:27:29;186.60;;;173.93;;
52614;SDS011;38508;53.158;6.614;2023-01-05T07:29:55;185.65;;;173.07;;
52614;SDS011;38508;53.158;6.614;2023-01-05T07:32:21;185.68;;;173.35;;
52614;SDS011;38508;53.158;6.614;2023-01-05T07:34:47;179.82;;;167.27;;
52614;SDS011;38508;53.158;6.614;2023-01-05T07:37:13;176.60;;;164.18;;
52614;SDS011;38508;53.158;6.614;2023-01-05T07:39:38;191.35;;;177.80;;
52614;SDS011;38508;53.158;6.614;2023-01-05T07:42:04;183.23;;;169.88;;
52614;SDS011;38508;53.158;6.614;2023-01-05T07:44:30;179.65;;;167.80;;
52614;SDS011;38508;53.158;6.614;2023-01-05T07:46:56;184.18;;;171.13;;
52614;SDS011;38508;53.158;6.614;2023-01-05T07:49:22;185.52;;;172.38;;
52614;SDS011;38508;53.158;6.614;2023-01-05T07:51:48;169.70;;;157.27;;
52614;SDS011;38508;53.158;6.614;2023-01-05T07:54:14;177.35;;;165.30;;
52614;SDS011;38508;53.158;6.614;2023-01-05T07:56:39;178.25;;;166.40;;
52614;SDS011;38508;53.158;6.614;2023-01-05T07:59:05;176.05;;;164.32;;
52614;SDS011;38508;53.158;6.614;2023-01-05T08:01:31;172.73;;;160.57;;
52614;SDS011;38508;53.158;6.614;2023-01-05T08:03:57;174.63;;;162.43;;
52614;SDS011;38508;53.158;6.614;2023-01-05T08:06:23;172.52;;;161.05;;
52614;SDS011;38508;53.158;6.614;2023-01-05T08:08:49;166.43;;;154.43;;
52614;SDS011;38508;53.158;6.614;2023-01-05T08:11:16;177.60;;;166.25;;
52614;SDS011;38508;53.158;6.614;2023-01-05T08:13:43;173.63;;;161.60;;
52614;SDS011;38508;53.158;6.614;2023-01-05T08:16:25;179.40;;;166.45;;
52614;SDS011;38508;53.158;6.614;2023-01-05T08:18:51;183.32;;;170.63;;
52614;SDS011;38508;53.158;6.614;2023-01-05T08:21:17;181.35;;;168.70;;
52614;SDS011;38508;53.158;6.614;2023-01-05T08:23:42;195.50;;;181.85;;
52614;SDS011;38508;53.158;6.614;2023-01-05T08:26:13;191.35;;;178.73;;
52614;SDS011;38508;53.158;6.614;2023-01-05T08:28:44;189.50;;;177.05;;
52614;SDS011;38508;53.158;6.614;2023-01-05T08:31:11;188.45;;;174.73;;
52614;SDS011;38508;53.158;6.614;2023-01-05T08:33:38;190.32;;;176.55;;
52614;SDS011;38508;53.158;6.614;2023-01-05T08:36:07;190.35;;;176.75;;
52614;SDS011;38508;53.158;6.614;2023-01-05T08:38:34;183.85;;;171.25;;
52614;SDS011;38508;53.158;6.614;2023-01-05T08:41:00;190.05;;;177.30;;
52614;SDS011;38508;53.158;6.614;2023-01-05T08:43:25;187.55;;;174.23;;
52614;SDS011;38508;53.158;6.614;2023-01-05T08:45:51;187.23;;;174.40;;
52614;SDS011;38508;53.158;6.614;2023-01-05T08:48:17;180.80;;;168.68;;
52614;SDS011;38508;53.158;6.614;2023-01-05T08:50:43;169.75;;;158.68;;
52614;SDS011;38508;53.158;6.614;2023-01-05T08:53:09;182.15;;;170.27;;
52614;SDS011;38508;53.158;6.614;2023-01-05T08:55:35;186.02;;;173.82;;
52614;SDS011;38508;53.158;6.614;2023-01-05T08:58:01;182.82;;;170.30;;
52614;SDS011;38508;53.158;6.614;2023-01-05T09:00:27;184.57;;;172.18;;
52614;SDS011;38508;53.158;6.614;2023-01-05T09:02:52;186.65;;;173.45;;
52614;SDS011;38508;53.158;6.614;2023-01-05T09:05:18;183.98;;;170.32;;
52614;SDS011;38508;53.158;6.614;2023-01-05T09:07:44;180.18;;;167.82;;
52614;SDS011;38508;53.158;6.614;2023-01-05T09:10:09;184.07;;;172.30;;
52614;SDS011;38508;53.158;6.614;2023-01-05T09:12:36;182.07;;;170.38;;
52614;SDS011;38508;53.158;6.614;2023-01-05T09:15:03;185.63;;;173.75;;
52614;SDS011;38508;53.158;6.614;2023-01-05T09:17:30;183.88;;;171.57;;
52614;SDS011;38508;53.158;6.614;2023-01-05T09:19:56;184.13;;;171.43;;
52614;SDS011;38508;53.158;6.614;2023-01-05T09:22:22;182.90;;;170.82;;
52614;SDS011;38508;53.158;6.614;2023-01-05T09:24:48;180.98;;;168.55;;
52614;SDS011;38508;53.158;6.614;2023-01-05T09:27:13;185.85;;;173.85;;
52614;SDS011;38508;53.158;6.614;2023-01-05T09:29:39;186.75;;;175.23;;
52614;SDS011;38508;53.158;6.614;2023-01-05T09:32:05;185.80;;;173.32;;
52614;SDS011;38508;53.158;6.614;2023-01-05T09:34:30;182.73;;;170.75;;
52614;SDS011;38508;53.158;6.614;2023-01-05T09:36:56;179.68;;;168.35;;
52614;SDS011;38508;53.158;6.614;2023-01-05T09:39:22;181.75;;;169.32;;
52614;SDS011;38508;53.158;6.614;2023-01-05T09:41:49;177.43;;;165.00;;
52614;SDS011;38508;53.158;6.614;2023-01-05T09:49:42;184.75;;;173.13;;
52614;SDS011;38508;53.158;6.614;2023-01-05T09:52:09;185.63;;;174.07;;
52614;SDS011;38508;53.158;6.614;2023-01-05T09:54:37;187.57;;;174.98;;
52614;SDS011;38508;53.158;6.614;2023-01-05T09:57:04;185.88;;;174.15;;
52614;SDS011;38508;53.158;6.614;2023-01-05T09:59:48;187.73;;;174.68;;
52614;SDS011;38508;53.158;6.614;2023-01-05T10:04:44;172.13;;;160.55;;
52614;SDS011;38508;53.158;6.614;2023-01-05T10:07:17;178.00;;;166.57;;
52614;SDS011;38508;53.158;6.614;2023-01-05T10:10:05;185.93;;;174.00;;
52614;SDS011;38508;53.158;6.614;2023-01-05T10:12:42;192.27;;;180.82;;
52614;SDS011;38508;53.158;6.614;2023-01-05T10:15:27;195.25;;;183.73;;
52614;SDS011;38508;53.158;6.614;2023-01-05T10:17:58;181.60;;;170.68;;
52614;SDS011;38508;53.158;6.614;2023-01-05T10:23:27;180.10;;;168.98;;
52614;SDS011;38508;53.158;6.614;2023-01-05T10:28:38;159.65;;;150.68;;
52614;SDS011;38508;53.158;6.614;2023-01-05T10:34:10;149.77;;;140.85;;
52614;SDS011;38508;53.158;6.614;2023-01-05T10:42:23;132.77;;;125.35;;
52614;SDS011;38508;53.158;6.614;2023-01-05T10:45:14;132.88;;;125.20;;
52614;SDS011;38508;53.158;6.614;2023-01-05T10:47:43;134.85;;;127.28;;
52614;SDS011;38508;53.158;6.614;2023-01-05T10:53:07;137.70;;;129.77;;
52614;SDS011;38508;53.158;6.614;2023-01-05T10:55:47;146.52;;;138.30;;
52614;SDS011;38508;53.158;6.614;2023-01-05T10:58:25;149.60;;;140.90;;
52614;SDS011;38508;53.158;6.614;2023-01-05T11:00:54;157.00;;;147.73;;
52614;SDS011;38508;53.158;6.614;2023-01-05T11:03:41;159.25;;;149.77;;
52614;SDS011;38508;53.158;6.614;2023-01-05T11:06:17;162.38;;;151.75;;
52614;SDS011;38508;53.158;6.614;2023-01-05T11:08:48;163.32;;;153.38;;
52614;SDS011;38508;53.158;6.614;2023-01-05T11:11:23;162.15;;;152.15;;
52614;SDS011;38508;53.158;6.614;2023-01-05T11:13:54;165.00;;;155.02;;
52614;SDS011;38508;53.158;6.614;2023-01-05T11:16:22;172.50;;;161.93;;
52614;SDS011;38508;53.158;6.614;2023-01-05T11:18:49;172.70;;;162.50;;
52614;SDS011;38508;53.158;6.614;2023-01-05T11:21:20;169.20;;;159.38;;
52614;SDS011;38508;53.158;6.614;2023-01-05T11:23:49;172.60;;;162.30;;
52614;SDS011;38508;53.158;6.614;2023-01-05T11:29:02;176.07;;;165.43;;
52614;SDS011;38508;53.158;6.614;2023-01-05T11:31:35;177.70;;;167.02;;
52614;SDS011;38508;53.158;6.614;2023-01-05T11:36:55;171.68;;;161.43;;
52614;SDS011;38508;53.158;6.614;2023-01-05T11:39:49;180.60;;;169.75;;
52614;SDS011;38508;53.158;6.614;2023-01-05T11:47:28;186.88;;;175.65;;
52614;SDS011;38508;53.158;6.614;2023-01-05T11:50:02;177.35;;;167.02;;
52614;SDS011;38508;53.158;6.614;2023-01-05T11:52:49;186.52;;;175.68;;
52614;SDS011;38508;53.158;6.614;2023-01-05T12:09:44;180.52;;;169.63;;
52614;SDS011;38508;53.158;6.614;2023-01-05T12:11:55;176.97;;;166.43;;
52614;SDS011;38508;53.158;6.614;2023-01-05T12:17:07;168.55;;;157.52;;
52614;SDS011;38508;53.158;6.614;2023-01-05T12:22:45;157.23;;;147.90;;
52614;SDS011;38508;53.158;6.614;2023-01-05T12:25:40;157.82;;;148.27;;
52614;SDS011;38508;53.158;6.614;2023-01-05T12:36:33;144.27;;;135.77;;
52614;SDS011;38508;53.158;6.614;2023-01-05T12:47:20;130.80;;;123.20;;
52614;SDS011;38508;53.158;6.614;2023-01-05T12:50:22;129.95;;;122.93;;
52614;SDS011;38508;53.158;6.614;2023-01-05T12:52:57;136.98;;;128.68;;
52614;SDS011;38508;53.158;6.614;2023-01-05T12:55:47;138.23;;;129.32;;
52614;SDS011;38508;53.158;6.614;2023-01-05T12:58:36;143.18;;;134.52;;
52614;SDS011;38508;53.158;6.614;2023-01-05T13:01:08;139.07;;;131.18;;
52614;SDS011;38508;53.158;6.614;2023-01-05T13:03:59;148.02;;;139.38;;
52614;SDS011;38508;53.158;6.614;2023-01-05T13:06:30;150.90;;;142.68;;
52614;SDS011;38508;53.158;6.614;2023-01-05T13:09:08;158.27;;;149.18;;
52614;SDS011;38508;53.158;6.614;2023-01-05T13:11:44;157.02;;;147.32;;
52614;SDS011;38508;53.158;6.614;2023-01-05T13:16:47;163.98;;;153.15;;
52614;SDS011;38508;53.158;6.614;2023-01-05T13:19:35;164.02;;;154.00;;
52614;SDS011;38508;53.158;6.614;2023-01-05T13:22:10;165.35;;;155.05;;
52614;SDS011;38508;53.158;6.614;2023-01-05T13:24:46;150.55;;;141.68;;
52614;SDS011;38508;53.158;6.614;2023-01-05T13:27:22;154.77;;;145.52;;
52614;SDS011;38508;53.158;6.614;2023-01-05T13:29:50;161.80;;;151.73;;
52614;SDS011;38508;53.158;6.614;2023-01-05T13:38:09;165.70;;;155.27;;
52614;SDS011;38508;53.158;6.614;2023-01-05T13:49:23;169.80;;;159.63;;
52614;SDS011;38508;53.158;6.614;2023-01-05T13:51:56;165.07;;;154.85;;
52614;SDS011;38508;53.158;6.614;2023-01-05T13:57:04;180.88;;;170.00;;
52614;SDS011;38508;53.158;6.614;2023-01-05T13:59:33;172.68;;;162.77;;
52614;SDS011;38508;53.158;6.614;2023-01-05T14:02:00;173.75;;;162.98;;
52614;SDS011;38508;53.158;6.614;2023-01-05T14:04:29;179.27;;;168.35;;
52614;SDS011;38508;53.158;6.614;2023-01-05T14:06:58;175.25;;;165.00;;
52614;SDS011;38508;53.158;6.614;2023-01-05T14:09:45;177.82;;;165.93;;
52614;SDS011;38508;53.158;6.614;2023-01-05T14:25:57;177.18;;;165.40;;
52614;SDS011;38508;53.158;6.614;2023-01-05T14:33:50;180.65;;;169.70;;
52614;SDS011;38508;53.158;6.614;2023-01-05T14:36:35;180.32;;;169.60;;
52614;SDS011;38508;53.158;6.614;2023-01-05T14:39:21;185.40;;;173.25;;
52614;SDS011;38508;53.158;6.614;2023-01-05T14:44:46;187.75;;;176.90;;
52614;SDS011;38508;53.158;6.614;2023-01-05T14:47:39;189.85;;;177.32;;
52614;SDS011;38508;53.158;6.614;2023-01-05T15:03:49;196.45;;;184.10;;
52614;SDS011;38508;53.158;6.614;2023-01-05T15:06:29;199.20;;;186.50;;
52614;SDS011;38508;53.158;6.614;2023-01-05T15:12:00;193.45;;;180.82;;
52614;SDS011;38508;53.158;6.614;2023-01-05T15:21:32;202.07;;;189.27;;
52614;SDS011;38508;53.158;6.614;2023-01-05T15:32:34;206.25;;;193.32;;
52614;SDS011;38508;53.158;6.614;2023-01-05T15:35:19;205.93;;;193.90;;
52614;SDS011;38508;53.158;6.614;2023-01-05T15:37:52;195.23;;;182.68;;
52614;SDS011;38508;53.158;6.614;2023-01-05T15:42:46;199.63;;;186.93;;
52614;SDS011;38508;53.158;6.614;2023-01-05T15:47:45;213.32;;;198.05;;
52614;SDS011;38508;53.158;6.614;2023-01-05T15:50:16;212.20;;;197.93;;
52614;SDS011;38508;53.158;6.614;2023-01-05T15:52:59;194.60;;;181.30;;
52614;SDS011;38508;53.158;6.614;2023-01-05T15:55:26;219.05;;;202.68;;
52614;SDS011;38508;53.158;6.614;2023-01-05T15:57:55;214.98;;;199.52;;
52614;SDS011;38508;53.158;6.614;2023-01-05T16:00:28;212.20;;;196.63;;
52614;SDS011;38508;53.158;6.614;2023-01-05T16:02:59;209.43;;;194.43;;
52614;SDS011;38508;53.158;6.614;2023-01-05T16:05:26;212.00;;;198.02;;
52614;SDS011;38508;53.158;6.614;2023-01-05T16:07:57;215.07;;;200.15;;
52614;SDS011;38508;53.158;6.614;2023-01-05T16:10:37;212.02;;;197.70;;
52614;SDS011;38508;53.158;6.614;2023-01-05T16:13:18;205.27;;;191.82;;
52614;SDS011;38508;53.158;6.614;2023-01-05T16:16:12;204.98;;;191.35;;
52614;SDS011;38508;53.158;6.614;2023-01-05T16:18:42;206.55;;;192.18;;
52614;SDS011;38508;53.158;6.614;2023-01-05T16:21:39;203.60;;;189.20;;
52614;SDS011;38508;53.158;6.614;2023-01-05T16:24:23;195.48;;;183.20;;
52614;SDS011;38508;53.158;6.614;2023-01-05T16:26:53;194.68;;;181.45;;
52614;SDS011;38508;53.158;6.614;2023-01-05T16:31:57;202.93;;;189.98;;
52614;SDS011;38508;53.158;6.614;2023-01-05T16:34:23;204.45;;;190.98;;
52614;SDS011;38508;53.158;6.614;2023-01-05T16:39:39;193.10;;;180.20;;
52614;SDS011;38508;53.158;6.614;2023-01-05T16:44:53;188.35;;;175.32;;
52614;SDS011;38508;53.158;6.614;2023-01-05T16:47:32;187.65;;;175.43;;
52614;SDS011;38508;53.158;6.614;2023-01-05T16:55:37;183.98;;;170.95;;
52614;SDS011;38508;53.158;6.614;2023-01-05T16:58:30;187.98;;;175.18;;
52614;SDS011;38508;53.158;6.614;2023-01-05T17:00:54;185.43;;;173.93;;
52614;SDS011;38508;53.158;6.614;2023-01-05T17:03:35;183.13;;;171.48;;
52614;SDS011;38508;53.158;6.614;2023-01-05T17:06:00;180.25;;;168.55;;
52614;SDS011;38508;53.158;6.614;2023-01-05T17:08:27;177.38;;;165.88;;
52614;SDS011;38508;53.158;6.614;2023-01-05T17:10:56;188.02;;;174.80;;
52614;SDS011;38508;53.158;6.614;2023-01-05T17:13:24;182.50;;;170.98;;
52614;SDS011;38508;53.158;6.614;2023-01-05T17:15:54;181.07;;;168.82;;
52614;SDS011;38508;53.158;6.614;2023-01-05T17:18:24;179.38;;;167.35;;
52614;SDS011;38508;53.158;6.614;2023-01-05T17:20:51;178.77;;;167.13;;
52614;SDS011;38508;53.158;6.614;2023-01-05T17:26:29;189.27;;;176.15;;